createdAt,value
2017-10-08T00:01:19.751Z,12.40
2017-10-08T00:03:50.336Z,12.40
2017-10-08T00:06:20.172Z,12.40
2017-10-08T00:08:50.321Z,12.40
2017-10-08T00:11:20.853Z,12.40
2017-10-08T00:13:50.768Z,12.40
2017-10-08T00:16:25.208Z,12.40
2017-10-08T00:18:55.354Z,12.40
2017-10-08T00:21:25.674Z,12.40
2017-10-08T00:23:55.385Z,12.40
2017-10-08T00:26:25.506Z,12.40
2017-10-08T00:28:55.345Z,12.40
2017-10-08T00:31:25.333Z,12.40
2017-10-08T00:33:55.039Z,12.40
2017-10-08T00:36:24.914Z,12.30
2017-10-08T00:38:55.032Z,12.30
2017-10-08T00:41:25.752Z,12.30
2017-10-08T00:43:56.541Z,12.30
2017-10-08T00:46:26.563Z,12.30
2017-10-08T00:48:56.707Z,12.30
2017-10-08T00:51:26.491Z,12.30
2017-10-08T00:53:57.245Z,12.30
2017-10-08T00:56:27.138Z,12.30
2017-10-08T00:58:57.666Z,12.30
2017-10-08T01:01:27.784Z,12.30
2017-10-08T01:03:57.698Z,12.30
2017-10-08T01:06:27.612Z,12.30
2017-10-08T01:08:57.731Z,12.20
2017-10-08T01:11:28.878Z,12.20
2017-10-08T01:13:59.198Z,12.20
2017-10-08T01:16:30.138Z,12.20
2017-10-08T01:19:00.021Z,12.20
2017-10-08T01:21:29.965Z,12.20
2017-10-08T01:24:00.700Z,12.20
2017-10-08T01:26:31.222Z,12.20
2017-10-08T01:29:01.267Z,12.10
2017-10-08T01:31:31.879Z,12.10
2017-10-08T01:34:01.791Z,12.10
2017-10-08T01:36:31.704Z,12.10
2017-10-08T01:39:01.805Z,12.10
2017-10-08T01:41:31.739Z,12.10
2017-10-08T01:44:01.653Z,12.10
2017-10-08T01:46:31.571Z,12.10
2017-10-08T01:49:01.437Z,12.00
2017-10-08T01:51:31.193Z,12.10
2017-10-08T01:54:01.309Z,12.10
2017-10-08T01:56:31.632Z,12.00
2017-10-08T01:59:02.374Z,12.00
2017-10-08T02:01:32.284Z,12.00
2017-10-08T02:04:02.373Z,12.00
2017-10-08T02:06:32.112Z,12.00
2017-10-08T02:09:02.987Z,12.00
2017-10-08T02:11:32.759Z,12.00
2017-10-08T02:14:02.672Z,12.00
2017-10-08T02:16:32.586Z,11.90
2017-10-08T02:19:02.508Z,11.90
2017-10-08T02:21:32.620Z,11.90
2017-10-08T02:24:02.691Z,11.90
2017-10-08T02:26:32.457Z,11.90
2017-10-08T02:29:02.168Z,11.90
2017-10-08T02:31:32.077Z,11.90
2017-10-08T02:34:01.782Z,11.80
2017-10-08T02:36:31.494Z,11.80
2017-10-08T02:39:01.576Z,11.80
2017-10-08T02:41:31.533Z,11.80
2017-10-08T02:44:01.235Z,11.80
2017-10-08T02:46:30.947Z,11.80
2017-10-08T02:49:00.818Z,11.70
2017-10-08T02:51:30.775Z,11.80
2017-10-08T02:54:01.506Z,11.70
2017-10-08T02:56:31.216Z,11.70
2017-10-08T02:59:01.131Z,11.70
2017-10-08T03:01:30.838Z,11.70
2017-10-08T03:04:00.548Z,11.70
2017-10-08T03:06:31.285Z,11.70
2017-10-08T03:09:01.200Z,11.70
2017-10-08T03:11:30.907Z,11.70
2017-10-08T03:14:00.616Z,11.70
2017-10-08T03:16:30.528Z,11.70
2017-10-08T03:19:01.216Z,11.60
2017-10-08T03:21:31.162Z,11.60
2017-10-08T03:24:00.888Z,11.60
2017-10-08T03:26:31.421Z,11.60
2017-10-08T03:29:01.334Z,11.60
2017-10-08T03:31:31.245Z,11.60
2017-10-08T03:34:01.569Z,11.50
2017-10-08T03:36:32.510Z,11.50
2017-10-08T03:39:02.423Z,11.50
2017-10-08T03:41:34.586Z,11.50
2017-10-08T03:44:04.499Z,11.50
2017-10-08T03:46:35.133Z,11.40
2017-10-08T03:49:04.950Z,11.40
2017-10-08T03:51:34.862Z,11.40
2017-10-08T03:54:05.594Z,11.40
2017-10-08T03:56:35.512Z,11.40
2017-10-08T03:59:05.493Z,11.30
2017-10-08T04:01:35.544Z,11.30
2017-10-08T04:04:05.460Z,11.30
2017-10-08T04:06:35.370Z,11.30
2017-10-08T04:09:05.783Z,11.30
2017-10-08T04:11:35.813Z,11.20
2017-10-08T04:14:05.918Z,11.20
2017-10-08T04:16:35.856Z,11.20
2017-10-08T04:19:05.914Z,11.20
2017-10-08T04:21:35.880Z,11.10
2017-10-08T04:24:05.594Z,11.10
2017-10-08T04:26:35.301Z,11.10
2017-10-08T04:29:05.362Z,11.10
2017-10-08T04:31:35.133Z,11.10
2017-10-08T04:34:04.839Z,11.00
2017-10-08T04:36:34.753Z,11.00
2017-10-08T04:39:05.078Z,11.00
2017-10-08T04:41:35.196Z,11.00
2017-10-08T04:44:04.896Z,10.90
2017-10-08T04:46:34.821Z,10.90
2017-10-08T04:49:04.734Z,10.90
2017-10-08T04:51:34.649Z,10.90
2017-10-08T04:54:04.571Z,10.80
2017-10-08T04:56:34.468Z,10.80
2017-10-08T04:59:04.186Z,10.80
2017-10-08T05:01:34.512Z,10.80
2017-10-08T05:04:04.425Z,10.80
2017-10-08T05:06:34.342Z,10.70
2017-10-08T05:09:04.454Z,10.70
2017-10-08T05:11:34.381Z,10.70
2017-10-08T05:14:04.287Z,10.60
2017-10-08T05:16:34.000Z,10.60
2017-10-08T05:19:03.912Z,10.60
2017-10-08T05:21:33.829Z,10.60
2017-10-08T05:24:03.946Z,10.60
2017-10-08T05:26:34.821Z,10.60
2017-10-08T05:29:04.785Z,10.60
2017-10-08T05:31:34.506Z,10.60
2017-10-08T05:34:05.752Z,10.50
2017-10-08T05:36:35.717Z,10.50
2017-10-08T05:39:06.301Z,10.50
2017-10-08T05:41:36.194Z,10.50
2017-10-08T05:44:06.948Z,10.50
2017-10-08T05:46:36.814Z,10.50
2017-10-08T05:49:06.776Z,10.40
2017-10-08T05:51:37.303Z,10.40
2017-10-08T05:54:07.218Z,10.40
2017-10-08T05:56:37.744Z,10.40
2017-10-08T05:59:07.454Z,10.40
2017-10-08T06:01:37.166Z,10.40
2017-10-08T06:04:06.880Z,10.40
2017-10-08T06:06:36.991Z,10.40
2017-10-08T06:09:08.140Z,10.40
2017-10-08T06:11:38.072Z,10.30
2017-10-08T06:14:07.966Z,10.40
2017-10-08T06:16:38.037Z,10.30
2017-10-08T06:19:08.822Z,10.40
2017-10-08T06:21:38.732Z,10.40
2017-10-08T06:24:08.852Z,10.30
2017-10-08T06:26:38.771Z,10.30
2017-10-08T06:29:08.666Z,10.30
2017-10-08T06:31:38.807Z,10.30
2017-10-08T06:34:09.328Z,10.30
2017-10-08T06:36:39.201Z,10.30
2017-10-08T06:39:09.186Z,10.30
2017-10-08T06:41:39.482Z,10.30
2017-10-08T06:44:09.808Z,10.30
2017-10-08T06:46:40.132Z,10.30
2017-10-08T06:49:10.657Z,10.30
2017-10-08T06:51:40.985Z,10.30
2017-10-08T06:54:12.344Z,10.30
2017-10-08T06:56:42.447Z,10.30
2017-10-08T06:59:12.163Z,10.30
2017-10-08T07:01:42.256Z,10.30
2017-10-08T07:04:11.991Z,10.30
2017-10-08T07:06:41.901Z,10.30
2017-10-08T07:09:11.819Z,10.30
2017-10-08T07:11:42.304Z,10.20
2017-10-08T07:14:12.369Z,10.20
2017-10-08T07:16:43.193Z,10.20
2017-10-08T07:19:13.114Z,10.20
2017-10-08T07:21:43.238Z,10.20
2017-10-08T07:24:13.554Z,10.20
2017-10-08T07:26:43.673Z,10.20
2017-10-08T07:29:13.588Z,10.20
2017-10-08T07:31:44.337Z,10.20
2017-10-08T07:34:14.854Z,10.20
2017-10-08T07:36:50.295Z,10.20
2017-10-08T07:39:21.077Z,10.20
2017-10-08T07:41:51.043Z,10.20
2017-10-08T07:44:21.362Z,10.30
2017-10-08T07:46:52.575Z,10.30
2017-10-08T07:49:23.058Z,10.50
2017-10-08T07:51:53.473Z,10.50
2017-10-08T07:54:23.386Z,10.60
2017-10-08T07:56:53.503Z,10.70
2017-10-08T07:59:23.831Z,10.80
2017-10-08T08:01:53.734Z,10.80
2017-10-08T08:04:23.967Z,10.90
2017-10-08T08:06:55.340Z,11.00
2017-10-08T08:09:25.480Z,10.90
2017-10-08T08:11:56.430Z,11.10
2017-10-08T08:14:26.387Z,11.10
2017-10-08T08:16:56.504Z,11.20
2017-10-08T08:19:27.237Z,11.30
2017-10-08T08:21:57.426Z,11.30
2017-10-08T08:24:27.721Z,11.30
2017-10-08T08:26:58.523Z,11.40
2017-10-08T08:29:28.801Z,11.50
2017-10-08T08:31:58.721Z,11.60
2017-10-08T08:34:28.877Z,11.60
2017-10-08T08:36:59.556Z,11.70
2017-10-08T08:39:30.499Z,11.70
2017-10-08T08:42:00.667Z,11.80
2017-10-08T08:44:30.989Z,11.90
2017-10-08T08:47:01.106Z,11.90
2017-10-08T08:49:31.845Z,12.00
2017-10-08T08:52:01.757Z,12.00
2017-10-08T08:54:32.782Z,12.10
2017-10-08T08:57:02.813Z,12.20
2017-10-08T08:59:32.934Z,12.30
2017-10-08T09:02:02.847Z,12.30
2017-10-08T09:04:35.018Z,12.40
2017-10-08T09:07:05.296Z,12.40
2017-10-08T09:09:35.457Z,12.50
2017-10-08T09:12:06.751Z,12.50
2017-10-08T09:14:37.477Z,12.60
2017-10-08T09:17:07.448Z,12.70
2017-10-08T09:19:37.572Z,12.70
2017-10-08T09:22:07.634Z,12.70
2017-10-08T09:24:37.534Z,12.80
2017-10-08T09:27:07.522Z,12.80
2017-10-08T09:29:37.436Z,12.90
2017-10-08T09:32:07.427Z,12.90
2017-10-08T09:34:37.422Z,13.00
2017-10-08T09:37:07.595Z,13.00
2017-10-08T09:39:37.502Z,13.10
2017-10-08T09:42:08.140Z,13.10
2017-10-08T09:44:39.583Z,13.30
2017-10-08T09:47:17.076Z,13.30
2017-10-08T09:49:46.785Z,13.30
2017-10-08T09:52:17.729Z,13.40
2017-10-08T09:54:56.044Z,13.40
2017-10-08T09:57:26.769Z,13.40
2017-10-08T09:59:58.525Z,13.50
2017-10-08T10:02:29.471Z,13.50
2017-10-08T10:05:01.837Z,13.60
2017-10-08T10:07:34.310Z,13.60
2017-10-08T10:10:06.757Z,13.60
2017-10-08T10:12:39.361Z,13.70
2017-10-08T10:15:22.386Z,13.60
2017-10-08T10:17:55.989Z,13.70
2017-10-08T10:20:26.692Z,13.70
2017-10-08T10:23:04.560Z,13.80
2017-10-08T10:25:42.118Z,13.80
2017-10-08T10:28:21.858Z,13.90
2017-10-08T10:30:54.842Z,14.00
2017-10-08T10:33:26.808Z,14.00
2017-10-08T10:35:59.595Z,14.00
2017-10-08T10:38:33.618Z,14.00
2017-10-08T10:46:16.050Z,14.20
2017-10-08T10:48:46.157Z,14.30
2017-10-08T10:51:16.860Z,14.30
2017-10-08T10:53:47.025Z,14.30
2017-10-08T10:56:17.267Z,14.40
2017-10-08T10:58:48.404Z,14.40
2017-10-08T11:01:18.388Z,14.40
2017-10-08T11:03:48.327Z,14.40
2017-10-08T11:06:19.216Z,14.40
2017-10-08T11:08:49.563Z,14.50
2017-10-08T11:11:20.308Z,14.50
2017-10-08T11:13:52.422Z,14.50
2017-10-08T11:16:22.509Z,14.60
2017-10-08T11:18:53.510Z,14.70
2017-10-08T11:21:23.601Z,14.70
2017-10-08T11:23:54.382Z,14.70
2017-10-08T11:26:24.300Z,14.80
2017-10-08T11:28:54.829Z,14.80
2017-10-08T11:31:25.762Z,14.80
2017-10-08T11:33:55.841Z,14.90
2017-10-08T11:36:25.783Z,14.90
2017-10-08T11:38:55.803Z,14.90
2017-10-08T11:41:26.068Z,14.80
2017-10-08T11:43:55.956Z,14.80
2017-10-08T11:46:25.978Z,14.90
2017-10-08T11:48:57.172Z,14.80
2017-10-08T11:51:28.366Z,14.80
2017-10-08T11:54:00.932Z,14.90
2017-10-08T11:56:31.666Z,14.90
2017-10-08T11:59:02.194Z,14.90
2017-10-08T12:01:32.472Z,14.90
2017-10-08T12:04:02.468Z,15.00
2017-10-08T12:06:32.449Z,15.00
2017-10-08T12:09:05.095Z,15.20
2017-10-08T12:11:35.050Z,15.20
2017-10-08T12:14:04.959Z,15.10
2017-10-08T12:16:34.870Z,15.10
2017-10-08T12:19:04.790Z,15.20
2017-10-08T12:21:35.314Z,15.10
2017-10-08T12:24:06.052Z,15.10
2017-10-08T12:26:36.373Z,15.20
2017-10-08T12:29:06.700Z,15.20
2017-10-08T12:31:36.790Z,15.20
2017-10-08T12:34:07.158Z,15.20
2017-10-08T12:36:38.040Z,15.20
2017-10-08T12:39:08.111Z,15.20
2017-10-08T12:41:38.316Z,15.20
2017-10-08T12:44:09.256Z,15.20
2017-10-08T12:46:39.591Z,15.10
2017-10-08T12:49:10.513Z,15.20
2017-10-08T12:51:40.638Z,15.00
2017-10-08T12:54:10.756Z,14.90
2017-10-08T12:56:41.575Z,14.90
2017-10-08T12:59:11.911Z,14.90
2017-10-08T13:01:43.178Z,14.90
2017-10-08T13:04:13.488Z,14.90
2017-10-08T13:06:43.558Z,14.90
2017-10-08T13:09:13.443Z,14.90
2017-10-08T13:11:43.450Z,14.90
2017-10-08T13:14:13.341Z,14.80
2017-10-08T13:16:43.270Z,14.80
2017-10-08T13:19:13.445Z,14.80
2017-10-08T13:21:43.704Z,14.70
2017-10-08T13:24:14.445Z,14.70
2017-10-08T13:26:44.474Z,14.70
2017-10-08T13:29:15.496Z,14.70
2017-10-08T13:31:45.767Z,14.70
2017-10-08T13:34:15.702Z,14.70
2017-10-08T13:36:45.753Z,14.60
2017-10-08T13:39:15.558Z,14.60
2017-10-08T13:41:45.685Z,14.50
2017-10-08T13:44:16.012Z,14.50
2017-10-08T13:46:46.112Z,14.40
2017-10-08T13:49:17.639Z,14.30
2017-10-08T13:51:47.837Z,14.30
2017-10-08T13:54:17.713Z,14.20
2017-10-08T13:56:50.046Z,14.20
2017-10-08T13:59:19.961Z,14.20
2017-10-08T14:01:49.912Z,14.10
2017-10-08T14:04:21.880Z,14.10
2017-10-08T14:06:52.412Z,14.10
2017-10-08T14:09:22.621Z,14.10
2017-10-08T14:11:54.077Z,14.10
2017-10-08T14:14:24.751Z,14.00
2017-10-08T14:16:55.749Z,14.00
2017-10-08T14:19:26.876Z,14.10
2017-10-08T14:21:57.420Z,14.10
2017-10-08T14:24:27.402Z,14.30
2017-10-08T14:26:57.785Z,14.60
2017-10-08T14:29:28.605Z,14.70
2017-10-08T14:31:58.755Z,14.90
2017-10-08T14:34:30.257Z,14.90
2017-10-08T14:37:00.389Z,15.00
2017-10-08T14:39:30.918Z,15.00
2017-10-08T14:42:00.832Z,15.00
2017-10-08T14:44:30.820Z,15.00
2017-10-08T14:47:01.071Z,15.00
2017-10-08T14:49:31.190Z,14.90
2017-10-08T14:52:01.152Z,14.90
2017-10-08T14:54:31.286Z,14.90
2017-10-08T14:57:01.142Z,14.80
2017-10-08T14:59:31.467Z,14.80
2017-10-08T15:02:01.593Z,14.80
2017-10-08T15:04:32.234Z,14.70
2017-10-08T15:07:05.534Z,14.70
2017-10-08T15:09:35.421Z,14.70
2017-10-08T15:12:07.186Z,14.60
2017-10-08T15:14:37.298Z,14.60
2017-10-08T15:17:08.223Z,14.60
2017-10-08T15:19:38.389Z,14.50
2017-10-08T15:22:09.914Z,14.50
2017-10-08T15:24:41.052Z,14.50
2017-10-08T15:27:11.992Z,14.50
2017-10-08T15:29:42.503Z,14.50
2017-10-08T15:32:12.392Z,14.40
2017-10-08T15:34:42.961Z,14.40
2017-10-08T15:37:13.082Z,14.40
2017-10-08T15:39:43.673Z,14.40
2017-10-08T15:42:14.734Z,14.40
2017-10-08T15:44:44.876Z,14.40
2017-10-08T15:47:14.863Z,14.40
2017-10-08T15:49:44.718Z,14.30
2017-10-08T15:52:15.025Z,14.30
2017-10-08T15:54:45.919Z,14.30
2017-10-08T15:57:16.861Z,14.20
2017-10-08T15:59:47.063Z,14.20
2017-10-08T16:02:17.264Z,14.20
2017-10-08T16:04:48.541Z,14.20
2017-10-08T16:07:18.610Z,14.20
2017-10-08T16:09:48.730Z,14.10
2017-10-08T16:12:18.890Z,14.20
2017-10-08T16:14:49.354Z,14.10
2017-10-08T16:17:19.507Z,14.10
2017-10-08T16:19:49.623Z,14.10
2017-10-08T16:22:19.914Z,14.10
2017-10-08T16:24:49.860Z,14.00
2017-10-08T16:27:19.938Z,14.00
2017-10-08T16:29:50.508Z,14.00
2017-10-08T16:32:20.365Z,14.00
2017-10-08T16:34:50.334Z,14.00
2017-10-08T16:37:20.203Z,13.90
2017-10-08T16:39:50.361Z,13.90
2017-10-08T16:42:20.878Z,13.90
2017-10-08T16:44:51.016Z,13.90
2017-10-08T16:47:20.916Z,13.90
2017-10-08T16:49:51.189Z,13.80
2017-10-08T16:52:21.073Z,13.80
2017-10-08T16:54:52.921Z,13.80
2017-10-08T16:57:22.857Z,13.80
2017-10-08T16:59:53.161Z,13.70
2017-10-08T17:02:23.068Z,13.70
2017-10-08T17:04:53.753Z,13.70
2017-10-08T17:07:24.753Z,13.70
2017-10-08T17:09:55.213Z,13.60
2017-10-08T17:12:26.834Z,13.60
2017-10-08T17:14:56.854Z,13.60
2017-10-08T17:17:28.286Z,13.60
2017-10-08T17:19:59.794Z,13.50
2017-10-08T17:22:29.709Z,13.50
2017-10-08T17:24:59.997Z,13.50
2017-10-08T17:27:30.107Z,13.50
2017-10-08T17:30:00.956Z,13.40
2017-10-08T17:32:31.877Z,13.40
2017-10-08T17:35:02.278Z,13.40
2017-10-08T17:37:32.757Z,13.40
2017-10-08T17:40:02.900Z,13.30
2017-10-08T17:42:34.089Z,13.30
2017-10-08T17:45:04.241Z,13.30
2017-10-08T17:47:34.525Z,13.30
2017-10-08T17:50:04.619Z,13.20
2017-10-08T17:52:35.236Z,13.20
2017-10-08T17:55:05.477Z,13.20
2017-10-08T17:57:35.721Z,13.10
2017-10-08T18:00:06.267Z,13.10
2017-10-08T18:02:37.189Z,13.10
2017-10-08T18:05:08.122Z,13.10
2017-10-08T18:07:38.795Z,13.00
2017-10-08T18:10:09.059Z,13.00
2017-10-08T18:12:39.334Z,13.00
2017-10-08T18:15:09.844Z,13.00
2017-10-08T18:17:41.808Z,12.90
2017-10-08T18:20:12.334Z,12.90
2017-10-08T18:22:42.827Z,12.90
2017-10-08T18:25:13.217Z,12.90
2017-10-08T18:27:43.538Z,12.90
2017-10-08T18:30:13.628Z,12.80
2017-10-08T18:32:43.754Z,12.80
2017-10-08T18:35:13.840Z,12.80
2017-10-08T18:37:43.781Z,12.80
2017-10-08T18:40:14.225Z,12.70
2017-10-08T18:42:44.434Z,12.70
2017-10-08T18:45:15.167Z,12.70
2017-10-08T18:47:45.363Z,12.60
2017-10-08T18:50:15.750Z,12.60
2017-10-08T18:52:45.808Z,12.60
2017-10-08T18:55:16.007Z,12.60
2017-10-08T18:57:46.597Z,12.60
2017-10-08T19:00:17.106Z,12.50
2017-10-08T19:02:47.590Z,12.50
2017-10-08T19:05:17.702Z,12.50
2017-10-08T19:07:48.857Z,12.40
2017-10-08T19:10:19.516Z,12.50
2017-10-08T19:12:49.927Z,12.40
2017-10-08T19:15:20.577Z,12.40
2017-10-08T19:17:51.587Z,12.30
2017-10-08T19:20:22.567Z,12.30
2017-10-08T19:22:54.283Z,12.30
2017-10-08T19:25:24.724Z,12.30
2017-10-08T19:27:55.025Z,12.20
2017-10-08T19:30:25.237Z,12.20
2017-10-08T19:32:55.362Z,12.20
2017-10-08T19:35:27.786Z,12.20
2017-10-08T19:37:57.911Z,12.20
2017-10-08T19:40:29.050Z,12.10
2017-10-08T19:42:59.031Z,12.10
2017-10-08T19:45:29.086Z,12.10
2017-10-08T19:48:00.099Z,12.10
2017-10-08T19:50:30.308Z,12.00
2017-10-08T19:53:00.447Z,12.00
2017-10-08T19:55:31.765Z,12.00
2017-10-08T19:58:02.693Z,12.00
2017-10-08T20:00:32.664Z,11.90
2017-10-08T20:03:02.863Z,11.90
2017-10-08T20:05:34.559Z,11.90
2017-10-08T20:08:04.786Z,11.90
2017-10-08T20:10:35.960Z,11.80
2017-10-08T20:13:06.759Z,11.80
2017-10-08T20:15:36.842Z,11.80
2017-10-08T20:18:06.905Z,11.80
2017-10-08T20:20:37.054Z,11.70
2017-10-08T20:23:07.018Z,11.70
2017-10-08T20:25:37.266Z,11.70
2017-10-08T20:28:07.662Z,11.70
2017-10-08T20:30:38.808Z,11.60
2017-10-08T20:33:09.495Z,11.60
2017-10-08T20:35:40.281Z,11.60
2017-10-08T20:38:10.377Z,11.60
2017-10-08T20:40:40.510Z,11.50
2017-10-08T20:43:11.253Z,11.50
2017-10-08T20:45:41.366Z,11.50
2017-10-08T20:48:11.485Z,11.50
2017-10-08T20:50:41.601Z,11.40
2017-10-08T20:53:12.119Z,11.40
2017-10-08T20:55:42.860Z,11.40
2017-10-08T20:58:13.192Z,11.40
2017-10-08T21:00:43.718Z,11.30
2017-10-08T21:03:13.778Z,11.30
2017-10-08T21:05:43.703Z,11.30
2017-10-08T21:08:13.868Z,11.30
2017-10-08T21:10:44.063Z,11.20
2017-10-08T21:13:14.301Z,11.20
2017-10-08T21:15:44.410Z,11.20
2017-10-08T21:18:14.879Z,11.20
2017-10-08T21:20:45.177Z,11.20
2017-10-08T21:23:15.199Z,11.20
2017-10-08T21:25:45.734Z,11.10
2017-10-08T21:28:15.866Z,11.10
2017-10-08T21:30:46.297Z,11.10
2017-10-08T21:33:17.108Z,11.00
2017-10-08T21:35:48.033Z,11.00
2017-10-08T21:38:18.043Z,11.00
2017-10-08T21:40:49.516Z,11.00
2017-10-08T21:43:19.842Z,10.90
2017-10-08T21:45:50.154Z,10.90
2017-10-08T21:48:20.893Z,10.90
2017-10-08T21:50:52.445Z,10.80
2017-10-08T21:53:23.665Z,10.80
2017-10-08T21:55:54.324Z,10.80
2017-10-08T21:58:24.637Z,10.80
2017-10-08T22:00:54.977Z,10.70
2017-10-08T22:03:26.654Z,10.70
2017-10-08T22:05:56.844Z,10.70
2017-10-08T22:08:27.773Z,10.70
2017-10-08T22:10:58.050Z,10.70
2017-10-08T22:13:28.322Z,10.60
2017-10-08T22:15:59.950Z,10.60
2017-10-08T22:18:29.696Z,10.60
2017-10-08T22:21:00.653Z,10.50
2017-10-08T22:23:30.517Z,10.50
2017-10-08T22:26:00.616Z,10.50
2017-10-08T22:28:31.402Z,10.50
2017-10-08T22:31:01.358Z,10.50
2017-10-08T22:33:31.638Z,10.50
2017-10-08T22:36:01.811Z,10.40
2017-10-08T22:38:31.672Z,10.40
2017-10-08T22:41:02.611Z,10.40
2017-10-08T22:43:32.616Z,10.40
2017-10-08T22:46:02.820Z,10.30
2017-10-08T22:48:32.560Z,10.30
2017-10-08T22:51:03.085Z,10.30
2017-10-08T22:53:33.001Z,10.30
2017-10-08T22:56:03.104Z,10.30
2017-10-08T22:58:33.069Z,10.20
2017-10-08T23:01:03.150Z,10.20
2017-10-08T23:03:33.480Z,10.20
2017-10-08T23:06:04.354Z,10.10
2017-10-08T23:08:34.287Z,10.10
2017-10-08T23:11:05.576Z,10.10
2017-10-08T23:13:36.716Z,10.10
2017-10-08T23:16:06.839Z,10.10
2017-10-08T23:18:37.051Z,10.00
2017-10-08T23:21:06.909Z,10.00
2017-10-08T23:23:36.783Z,10.00
2017-10-08T23:26:06.726Z,10.00
2017-10-08T23:28:36.613Z,10.00
2017-10-08T23:31:06.725Z,10.00
2017-10-08T23:33:38.078Z,9.90
2017-10-08T23:36:07.788Z,9.90
2017-10-08T23:38:37.704Z,9.90
2017-10-08T23:41:07.413Z,9.80
2017-10-08T23:43:37.345Z,9.80
2017-10-08T23:46:07.244Z,9.80
2017-10-08T23:48:37.565Z,9.80
2017-10-08T23:51:08.912Z,9.70
2017-10-08T23:53:38.624Z,9.70
2017-10-08T23:56:08.535Z,9.70
2017-10-08T23:58:39.066Z,9.60
